createdAt,value
2018-01-25T00:00:03.174Z,94477.56
2018-01-25T00:02:31.243Z,94471.17
2018-01-25T00:04:59.595Z,94469.20
2018-01-25T00:07:27.980Z,94469.09
2018-01-25T00:09:56.322Z,94462.66
2018-01-25T00:12:24.670Z,94463.77
2018-01-25T00:14:53.027Z,94459.10
2018-01-25T00:17:21.378Z,94460.68
2018-01-25T00:19:49.721Z,94459.67
2018-01-25T00:22:18.072Z,94465.77
2018-01-25T00:24:46.411Z,94457.64
2018-01-25T00:27:14.766Z,94467.44
2018-01-25T00:29:43.115Z,94470.75
2018-01-25T00:32:11.494Z,94468.30
2018-01-25T00:34:39.845Z,94467.09
2018-01-25T00:37:08.189Z,94474.14
2018-01-25T00:39:36.584Z,94472.57
2018-01-25T00:42:04.935Z,94464.77
2018-01-25T00:44:33.286Z,94471.27
2018-01-25T00:47:01.634Z,94466.97
2018-01-25T00:49:29.966Z,94469.06
2018-01-25T00:51:58.314Z,94471.41
2018-01-25T00:54:26.687Z,94489.42
2018-01-25T00:56:55.057Z,94480.44
2018-01-25T00:59:23.430Z,94472.09
2018-01-25T01:01:51.810Z,94473.08
2018-01-25T01:04:20.211Z,94477.75
2018-01-25T01:06:48.579Z,94475.50
2018-01-25T01:09:16.946Z,94474.67
2018-01-25T01:11:45.286Z,94463.97
2018-01-25T01:14:13.648Z,94458.28
2018-01-25T01:16:42.010Z,94459.33
2018-01-25T01:19:10.390Z,94470.44
2018-01-25T01:21:38.730Z,94447.52
2018-01-25T01:24:07.106Z,94464.56
2018-01-25T01:26:35.458Z,94484.80
2018-01-25T01:29:03.840Z,94474.19
2018-01-25T01:31:32.217Z,94480.09
2018-01-25T01:34:00.613Z,94467.89
2018-01-25T01:36:28.962Z,94474.37
2018-01-25T01:38:57.298Z,94466.73
2018-01-25T01:41:25.641Z,94473.23
2018-01-25T01:43:54.034Z,94473.67
2018-01-25T01:46:22.374Z,94471.63
2018-01-25T01:48:50.718Z,94473.64
2018-01-25T01:51:19.062Z,94473.94
2018-01-25T01:53:47.411Z,94474.13
2018-01-25T01:56:15.749Z,94477.22
2018-01-25T01:58:44.126Z,94477.16
2018-01-25T02:01:12.473Z,94480.20
2018-01-25T02:03:40.816Z,94485.17
2018-01-25T02:06:09.161Z,94478.03
2018-01-25T02:08:37.506Z,94490.68
2018-01-25T02:11:05.870Z,94481.64
2018-01-25T02:13:34.254Z,94473.03
2018-01-25T02:16:21.562Z,94461.43
2018-01-25T02:18:49.955Z,94460.66
2018-01-25T02:21:18.296Z,94459.02
2018-01-25T02:23:46.666Z,94462.52
2018-01-25T02:26:15.047Z,94461.16
2018-01-25T02:28:43.383Z,94464.14
2018-01-25T02:31:11.718Z,94468.19
2018-01-25T02:33:40.062Z,94467.75
2018-01-25T02:36:08.402Z,94463.74
2018-01-25T02:38:36.769Z,94468.40
2018-01-25T02:41:05.114Z,94450.11
2018-01-25T02:43:33.458Z,94467.47
2018-01-25T02:46:01.808Z,94463.42
2018-01-25T02:48:30.163Z,94474.27
2018-01-25T02:50:58.530Z,94470.59
2018-01-25T02:53:26.876Z,94467.60
2018-01-25T02:55:55.247Z,94470.41
2018-01-25T02:58:23.594Z,94481.02
2018-01-25T03:00:51.931Z,94468.19
2018-01-25T03:03:20.291Z,94476.56
2018-01-25T03:05:48.627Z,94473.39
2018-01-25T03:08:16.977Z,94470.64
2018-01-25T03:10:45.309Z,94473.66
2018-01-25T03:13:13.667Z,94470.34
2018-01-25T03:15:42.001Z,94469.74
2018-01-25T03:18:10.382Z,94483.47
2018-01-25T03:20:38.736Z,94469.04
2018-01-25T03:23:07.070Z,94482.84
2018-01-25T03:25:35.450Z,94479.14
2018-01-25T03:28:03.787Z,94474.73
2018-01-25T03:30:32.161Z,94486.11
2018-01-25T03:33:00.503Z,94483.84
2018-01-25T03:35:28.874Z,94491.13
2018-01-25T03:37:57.244Z,94487.70
2018-01-25T03:40:25.590Z,94494.30
2018-01-25T03:42:53.943Z,94491.75
2018-01-25T03:45:33.154Z,94492.53
2018-01-25T03:48:01.529Z,94501.80
2018-01-25T03:50:29.880Z,94506.89
2018-01-25T03:52:58.246Z,94504.92
2018-01-25T03:55:26.591Z,94503.08
2018-01-25T03:57:54.926Z,94499.95
2018-01-25T04:00:44.202Z,94500.98
2018-01-25T04:03:12.607Z,94509.67
2018-01-25T04:05:40.958Z,94497.31
2018-01-25T04:08:09.327Z,94497.84
2018-01-25T04:10:37.707Z,94509.64
2018-01-25T04:13:06.059Z,94528.14
2018-01-25T04:15:34.435Z,94523.54
2018-01-25T04:18:02.790Z,94515.90
2018-01-25T04:20:31.158Z,94522.51
2018-01-25T04:22:59.498Z,94517.53
2018-01-25T04:25:27.889Z,94523.73
2018-01-25T04:27:56.233Z,94522.92
2018-01-25T04:30:24.614Z,94526.81
2018-01-25T04:32:52.959Z,94527.63
2018-01-25T04:35:21.301Z,94537.39
2018-01-25T04:37:49.634Z,94532.12
2018-01-25T04:40:18.007Z,94517.89
2018-01-25T04:42:46.370Z,94523.84
2018-01-25T04:45:14.750Z,94517.48
2018-01-25T04:47:43.105Z,94529.94
2018-01-25T04:50:11.440Z,94536.06
2018-01-25T04:52:39.780Z,94531.31
2018-01-25T04:55:08.121Z,94529.56
2018-01-25T04:57:36.457Z,94525.18
2018-01-25T05:00:04.829Z,94528.44
2018-01-25T05:02:33.177Z,94543.84
2018-01-25T05:05:01.551Z,94546.42
2018-01-25T05:07:29.899Z,94535.85
2018-01-25T05:09:58.296Z,94537.31
2018-01-25T05:12:26.638Z,94528.11
2018-01-25T05:14:54.991Z,94535.91
2018-01-25T05:17:28.991Z,94540.06
2018-01-25T05:19:57.474Z,94545.48
2018-01-25T05:22:25.814Z,94554.39
2018-01-25T05:24:54.170Z,94557.81
2018-01-25T05:27:22.506Z,94560.29
2018-01-25T05:29:50.845Z,94570.35
2018-01-25T05:32:19.218Z,94574.61
2018-01-25T05:34:47.566Z,94575.52
2018-01-25T05:37:15.910Z,94584.50
2018-01-25T05:39:44.265Z,94590.49
2018-01-25T05:42:12.629Z,94586.41
2018-01-25T05:44:41.002Z,94594.02
2018-01-25T05:47:09.354Z,94586.47
2018-01-25T05:49:37.723Z,94573.02
2018-01-25T05:52:06.071Z,94575.23
2018-01-25T05:54:34.420Z,94577.06
2018-01-25T05:57:02.794Z,94578.08
2018-01-25T05:59:31.142Z,94578.16
2018-01-25T06:01:59.494Z,94582.99
2018-01-25T06:04:27.838Z,94591.02
2018-01-25T06:06:56.217Z,94594.72
2018-01-25T06:09:24.572Z,94603.00
2018-01-25T06:11:52.915Z,94604.31
2018-01-25T06:14:21.286Z,94605.53
2018-01-25T06:16:49.657Z,94600.57
2018-01-25T06:19:18.030Z,94599.19
2018-01-25T06:21:46.405Z,94600.71
2018-01-25T06:24:14.749Z,94583.08
2018-01-25T06:26:43.138Z,94587.57
2018-01-25T06:29:11.502Z,94583.03
2018-01-25T06:31:39.865Z,94583.67
2018-01-25T06:34:08.239Z,94584.47
2018-01-25T06:36:36.583Z,94587.95
2018-01-25T06:39:04.980Z,94588.33
2018-01-25T06:41:33.354Z,94595.41
2018-01-25T06:44:01.700Z,94600.13
2018-01-25T06:46:30.075Z,94605.55
2018-01-25T06:48:58.442Z,94598.78
2018-01-25T06:51:26.790Z,94598.22
2018-01-25T06:53:55.165Z,94593.88
2018-01-25T06:56:23.526Z,94589.98
2018-01-25T06:58:51.872Z,94597.11
2018-01-25T07:01:20.251Z,94601.73
2018-01-25T07:03:48.608Z,94608.58
2018-01-25T07:06:16.958Z,94601.98
2018-01-25T07:08:45.337Z,94603.80
2018-01-25T07:11:13.681Z,94610.41
2018-01-25T07:13:42.042Z,94611.67
2018-01-25T07:16:10.386Z,94612.89
2018-01-25T07:18:38.741Z,94617.23
2018-01-25T07:21:07.114Z,94613.98
2018-01-25T07:23:35.460Z,94605.27
2018-01-25T07:26:03.831Z,94608.89
2018-01-25T07:28:32.184Z,94604.66
2018-01-25T07:31:00.537Z,94616.58
2018-01-25T07:33:28.895Z,94626.69
2018-01-25T07:35:57.256Z,94625.40
2018-01-25T07:38:25.625Z,94623.94
2018-01-25T07:40:53.966Z,94623.39
2018-01-25T07:43:22.337Z,94616.58
2018-01-25T07:45:50.701Z,94614.04
2018-01-25T07:48:19.049Z,94616.38
2018-01-25T07:50:47.424Z,94620.07
2018-01-25T07:53:15.774Z,94621.75
2018-01-25T07:55:44.111Z,94618.63
2018-01-25T07:58:18.895Z,94614.69
2018-01-25T08:00:47.225Z,94604.30
2018-01-25T08:03:15.607Z,94610.62
2018-01-25T08:05:43.955Z,94616.45
2018-01-25T08:08:12.305Z,94613.84
2018-01-25T08:10:40.650Z,94611.69
2018-01-25T08:13:14.628Z,94615.06
2018-01-25T08:15:42.974Z,94618.02
2018-01-25T08:18:11.358Z,94612.05
2018-01-25T08:20:39.726Z,94624.74
2018-01-25T08:23:08.101Z,94623.83
2018-01-25T08:25:36.470Z,94626.84
2018-01-25T08:28:04.846Z,94626.77
2018-01-25T08:30:33.187Z,94620.25
2018-01-25T08:33:01.590Z,94617.50
2018-01-25T08:35:29.935Z,94602.19
2018-01-25T08:37:58.286Z,94616.30
2018-01-25T08:40:26.626Z,94616.33
2018-01-25T08:42:54.983Z,94608.31
2018-01-25T08:45:23.352Z,94617.02
2018-01-25T08:47:51.695Z,94611.44
2018-01-25T08:50:20.072Z,94610.22
2018-01-25T08:52:48.416Z,94606.50
2018-01-25T08:55:16.782Z,94611.67
2018-01-25T08:57:45.198Z,94618.86
2018-01-25T09:00:13.568Z,94634.06
2018-01-25T09:02:41.938Z,94653.13
2018-01-25T09:08:10.386Z,94640.91
2018-01-25T09:13:44.639Z,94630.30
2018-01-25T09:16:13.326Z,94637.44
2018-01-25T09:18:41.719Z,94644.69
2018-01-25T09:21:10.064Z,94647.25
2018-01-25T09:23:38.514Z,94641.58
2018-01-25T09:26:07.004Z,94651.58
2018-01-25T09:28:35.416Z,94640.95
2018-01-25T09:31:03.816Z,94648.58
2018-01-25T09:33:32.172Z,94644.23
2018-01-25T09:36:00.512Z,94640.80
2018-01-25T09:38:28.879Z,94638.08
2018-01-25T09:40:57.271Z,94636.48
2018-01-25T09:43:25.634Z,94616.59
2018-01-25T09:45:54.123Z,94623.72
2018-01-25T09:48:22.459Z,94631.86
2018-01-25T09:50:50.859Z,94625.37
2018-01-25T09:53:19.195Z,94631.66
2018-01-25T09:55:47.563Z,94635.35
2018-01-25T09:58:15.939Z,94633.80
2018-01-25T10:36:39.544Z,94655.34
2018-01-25T10:39:07.891Z,94650.02
2018-01-25T10:41:36.306Z,94640.24
2018-01-25T10:47:04.509Z,94645.89
2018-01-25T10:49:32.920Z,94636.94
2018-01-25T10:52:01.348Z,94644.46
2018-01-25T10:54:29.699Z,94642.54
2018-01-25T10:57:01.176Z,94635.23
2018-01-25T10:59:29.958Z,94635.35
2018-01-25T11:04:43.961Z,94622.34
2018-01-25T11:07:12.307Z,94625.15
2018-01-25T11:09:40.646Z,94621.45
2018-01-25T11:12:09.007Z,94625.81
2018-01-25T11:14:37.367Z,94620.98
2018-01-25T11:17:06.060Z,94622.16
2018-01-25T11:19:34.405Z,94621.56
2018-01-25T11:22:02.743Z,94627.58
2018-01-25T11:24:31.111Z,94624.47
2018-01-25T11:26:59.475Z,94623.10
2018-01-25T11:29:27.839Z,94620.93
2018-01-25T11:31:56.244Z,94622.33
2018-01-25T11:34:24.666Z,94619.58
2018-01-25T11:36:53.374Z,94615.14
2018-01-25T11:39:34.536Z,94604.27
2018-01-25T11:42:02.979Z,94600.91
2018-01-25T11:44:31.375Z,94600.00
2018-01-25T11:46:59.777Z,94601.48
2018-01-25T11:49:29.230Z,94604.91
2018-01-25T11:51:57.660Z,94601.00
2018-01-25T11:54:26.127Z,94609.86
2018-01-25T11:56:54.589Z,94604.75
2018-01-25T11:59:22.983Z,94605.06
2018-01-25T12:01:51.443Z,94602.12
2018-01-25T12:04:19.827Z,94596.34
2018-01-25T12:06:48.599Z,94593.03
2018-01-25T12:09:17.084Z,94599.34
2018-01-25T12:11:45.486Z,94594.99
2018-01-25T12:14:13.958Z,94594.42
2018-01-25T12:16:42.363Z,94583.34
2018-01-25T12:19:11.121Z,94580.67
2018-01-25T12:21:39.661Z,94574.89
2018-01-25T12:24:08.067Z,94577.70
2018-01-25T12:26:36.462Z,94559.83
2018-01-25T12:29:04.949Z,94560.28
2018-01-25T12:31:33.750Z,94558.18
2018-01-25T12:34:02.134Z,94557.73
2018-01-25T12:36:30.603Z,94553.06
2018-01-25T12:38:59.016Z,94552.37
2018-01-25T12:41:27.511Z,94549.66
2018-01-25T12:43:55.946Z,94556.18
2018-01-25T12:46:24.623Z,94552.53
2018-01-25T12:48:53.387Z,94549.45
2018-01-25T12:51:21.909Z,94537.08
2018-01-25T12:53:50.299Z,94537.75
2018-01-25T12:56:18.682Z,94533.02
2018-01-25T12:58:47.107Z,94542.21
2018-01-25T13:01:15.555Z,94531.47
2018-01-25T13:03:44.026Z,94523.00
2018-01-25T13:06:12.422Z,94529.05
2018-01-25T13:08:40.821Z,94518.28
2018-01-25T13:11:09.219Z,94523.63
2018-01-25T13:13:37.983Z,94517.81
2018-01-25T13:16:06.354Z,94513.75
2018-01-25T13:18:34.763Z,94512.13
2018-01-25T13:21:03.145Z,94510.77
2018-01-25T13:23:31.552Z,94511.69
2018-01-25T13:25:59.960Z,94502.03
2018-01-25T13:28:28.419Z,94497.73
2018-01-25T13:30:56.811Z,94494.77
2018-01-25T13:33:31.470Z,94493.44
2018-01-25T13:36:00.163Z,94492.27
2018-01-25T13:38:28.546Z,94501.11
2018-01-25T13:40:56.940Z,94506.06
2018-01-25T13:43:25.402Z,94500.13
2018-01-25T13:45:53.998Z,94500.11
2018-01-25T13:48:22.468Z,94503.80
2018-01-25T13:50:50.862Z,94503.55
2018-01-25T13:55:59.169Z,94499.97
2018-01-25T13:58:27.567Z,94506.27
2018-01-25T14:00:56.358Z,94508.78
2018-01-25T14:03:24.768Z,94501.83
2018-01-25T14:05:53.173Z,94513.77
2018-01-25T14:08:21.655Z,94509.72
2018-01-25T14:10:50.040Z,94507.47
2018-01-25T14:13:18.591Z,94508.52
2018-01-25T14:15:46.986Z,94503.60
2018-01-25T14:18:15.368Z,94505.91
2018-01-25T14:20:43.769Z,94509.55
2018-01-25T14:23:12.172Z,94512.99
2018-01-25T14:25:40.877Z,94504.61
2018-01-25T14:28:09.296Z,94514.56
2018-01-25T14:30:37.734Z,94516.75
2018-01-25T14:33:06.150Z,94511.41
2018-01-25T14:35:34.555Z,94515.03
2018-01-25T14:38:03.364Z,94515.44
2018-01-25T14:40:31.772Z,94523.30
2018-01-25T14:43:00.232Z,94515.66
2018-01-25T14:45:28.647Z,94516.67
2018-01-25T14:47:57.051Z,94521.96
2018-01-25T14:50:25.640Z,94516.09
2018-01-25T14:52:54.045Z,94526.49
2018-01-25T14:55:26.091Z,94521.44
2018-01-25T14:57:54.487Z,94521.16
2018-01-25T15:00:22.886Z,94525.12
2018-01-25T15:02:51.606Z,94521.00
2018-01-25T15:05:20.008Z,94524.84
2018-01-25T15:07:48.423Z,94529.02
2018-01-25T15:10:16.807Z,94519.98
2018-01-25T15:12:45.224Z,94523.94
2018-01-25T15:15:13.920Z,94519.95
2018-01-25T15:17:42.310Z,94515.41
2018-01-25T15:20:10.702Z,94520.81
2018-01-25T15:22:39.100Z,94513.03
2018-01-25T15:25:13.285Z,94512.78
2018-01-25T15:27:41.686Z,94510.38
2018-01-25T15:30:10.070Z,94521.44
2018-01-25T15:32:38.722Z,94513.13
2018-01-25T15:35:07.123Z,94509.88
2018-01-25T15:37:35.598Z,94507.32
2018-01-25T15:40:03.995Z,94508.53
2018-01-25T15:42:32.402Z,94507.08
2018-01-25T15:45:00.872Z,94521.86
2018-01-25T15:47:29.313Z,94526.31
2018-01-25T15:49:57.650Z,94522.66
2018-01-25T15:52:26.043Z,94521.42
2018-01-25T15:54:54.439Z,94522.72
2018-01-25T15:57:22.971Z,94518.41
2018-01-25T15:59:51.368Z,94521.47
2018-01-25T16:02:19.768Z,94527.55
2018-01-25T16:04:48.158Z,94525.86
2018-01-25T16:07:16.648Z,94517.30
2018-01-25T16:09:45.087Z,94518.66
2018-01-25T16:12:13.499Z,94521.70
2018-01-25T16:14:41.905Z,94520.75
2018-01-25T16:17:10.291Z,94517.62
2018-01-25T16:19:38.686Z,94524.77
2018-01-25T16:22:07.136Z,94523.78
2018-01-25T16:24:35.547Z,94524.58
2018-01-25T16:27:03.945Z,94518.78
2018-01-25T16:29:32.433Z,94519.44
2018-01-25T16:32:00.877Z,94514.26
2018-01-25T16:34:29.574Z,94531.68
2018-01-25T16:36:57.978Z,94528.22
2018-01-25T16:39:26.364Z,94525.62
2018-01-25T16:41:54.767Z,94522.14
2018-01-25T16:44:23.154Z,94523.55
2018-01-25T16:46:51.851Z,94522.69
2018-01-25T16:49:20.234Z,94524.17
2018-01-25T16:51:48.620Z,94525.33
2018-01-25T16:54:17.024Z,94528.68
2018-01-25T16:56:45.428Z,94524.27
2018-01-25T16:59:14.107Z,94533.60
2018-01-25T17:01:42.559Z,94529.55
2018-01-25T17:04:10.944Z,94521.81
2018-01-25T17:06:39.628Z,94530.00
2018-01-25T17:09:08.245Z,94527.75
2018-01-25T17:11:36.755Z,94526.41
2018-01-25T17:14:05.507Z,94524.75
2018-01-25T17:16:37.798Z,94527.01
2018-01-25T17:19:06.185Z,94526.92
2018-01-25T17:21:34.638Z,94530.56
2018-01-25T17:24:03.023Z,94527.44
2018-01-25T17:26:31.418Z,94525.71
2018-01-25T17:28:59.807Z,94530.36
2018-01-25T17:31:28.194Z,94530.71
2018-01-25T17:33:56.686Z,94532.81
2018-01-25T17:36:25.073Z,94534.68
2018-01-25T17:38:53.779Z,94528.25
2018-01-25T17:41:22.312Z,94538.02
2018-01-25T17:43:50.691Z,94531.25
2018-01-25T17:46:19.082Z,94519.33
2018-01-25T17:48:47.506Z,94527.30
2018-01-25T17:51:16.221Z,94531.27
2018-01-25T17:53:44.623Z,94533.30
2018-01-25T17:56:13.080Z,94530.45
2018-01-25T17:58:41.483Z,94519.64
2018-01-25T18:01:09.867Z,94527.83
2018-01-25T18:03:38.379Z,94531.92
2018-01-25T18:06:06.767Z,94529.50
2018-01-25T18:08:35.147Z,94534.09
2018-01-25T18:11:03.562Z,94527.14
2018-01-25T18:13:31.950Z,94529.95
2018-01-25T18:16:00.660Z,94536.41
2018-01-25T18:18:29.067Z,94536.17
2018-01-25T18:20:57.465Z,94534.13
2018-01-25T18:23:25.865Z,94536.25
2018-01-25T18:25:54.247Z,94536.07
2018-01-25T18:28:22.710Z,94537.40
2018-01-25T18:30:51.102Z,94536.02
2018-01-25T18:33:19.910Z,94538.10
2018-01-25T18:35:48.294Z,94544.09
2018-01-25T18:38:16.682Z,94541.48
2018-01-25T18:40:45.283Z,94543.06
2018-01-25T18:43:13.695Z,94543.09
2018-01-25T18:45:42.088Z,94543.83
2018-01-25T18:48:10.517Z,94541.16
2018-01-25T18:50:38.967Z,94535.62
2018-01-25T18:53:07.656Z,94537.92
2018-01-25T18:55:36.040Z,94543.20
2018-01-25T18:58:04.506Z,94544.12
2018-01-25T19:00:32.884Z,94548.09
2018-01-25T19:03:01.322Z,94545.42
2018-01-25T19:05:29.740Z,94547.60
2018-01-25T19:07:58.128Z,94546.60
2018-01-25T19:10:26.866Z,94551.80
2018-01-25T19:12:55.250Z,94547.08
2018-01-25T19:15:23.644Z,94543.13
2018-01-25T19:17:52.039Z,94546.63
2018-01-25T19:20:20.438Z,94548.64
2018-01-25T19:22:49.251Z,94544.12
2018-01-25T19:25:17.695Z,94546.08
2018-01-25T19:27:46.093Z,94535.83
2018-01-25T19:30:14.721Z,94534.10
2018-01-25T19:32:43.098Z,94541.20
2018-01-25T19:35:11.625Z,94543.83
2018-01-25T19:37:40.007Z,94546.44
2018-01-25T19:40:08.473Z,94541.14
2018-01-25T19:42:36.882Z,94541.40
2018-01-25T19:45:05.317Z,94536.86
2018-01-25T19:47:33.815Z,94536.05
2018-01-25T19:50:02.195Z,94531.09
2018-01-25T19:52:30.585Z,94535.25
2018-01-25T19:54:58.981Z,94537.63
2018-01-25T19:57:27.369Z,94529.35
2018-01-25T19:59:56.265Z,94530.81
2018-01-25T20:02:25.519Z,94522.70
2018-01-25T20:04:53.970Z,94526.01
2018-01-25T20:07:22.446Z,94521.54
2018-01-25T20:09:50.851Z,94520.08
2018-01-25T20:12:19.442Z,94520.95
2018-01-25T20:14:48.072Z,94520.00
2018-01-25T20:17:16.442Z,94515.69
2018-01-25T20:19:44.815Z,94521.63
2018-01-25T20:22:13.222Z,94531.38
2018-01-25T20:24:41.666Z,94531.34
2018-01-25T20:27:10.026Z,94523.75
2018-01-25T20:29:38.411Z,94525.27
2018-01-25T20:32:06.799Z,94526.69
2018-01-25T20:34:35.192Z,94531.37
2018-01-25T20:37:03.918Z,94531.26
2018-01-25T20:39:32.320Z,94531.92
2018-01-25T20:42:00.702Z,94530.53
2018-01-25T20:44:29.077Z,94527.52
2018-01-25T20:46:57.428Z,94526.34
2018-01-25T20:49:26.160Z,94529.20
2018-01-25T20:51:54.541Z,94525.59
2018-01-25T20:54:23.031Z,94530.56
2018-01-25T20:56:51.448Z,94529.73
2018-01-25T20:59:19.939Z,94528.57
2018-01-25T21:01:48.350Z,94533.52
2018-01-25T21:04:16.728Z,94527.50
2018-01-25T21:06:45.414Z,94527.45
2018-01-25T21:09:13.778Z,94528.30
2018-01-25T21:11:42.138Z,94528.55
2018-01-25T21:14:10.559Z,94527.50
2018-01-25T21:16:38.907Z,94530.89
2018-01-25T21:19:07.593Z,94525.38
2018-01-25T21:21:35.966Z,94520.98
2018-01-25T21:24:04.324Z,94520.52
2018-01-25T21:26:32.675Z,94519.77
2018-01-25T21:29:01.070Z,94521.23
2018-01-25T21:31:29.762Z,94519.41
2018-01-25T21:33:58.148Z,94524.82
2018-01-25T21:36:26.527Z,94521.59
2018-01-25T21:38:54.942Z,94523.97
2018-01-25T21:41:23.369Z,94521.31
2018-01-25T21:43:51.792Z,94516.61
2018-01-25T21:46:20.194Z,94523.23
2018-01-25T21:48:48.900Z,94524.40
2018-01-25T21:51:17.275Z,94522.42
2018-01-25T21:53:45.666Z,94525.38
2018-01-25T21:56:14.070Z,94524.73
2018-01-25T21:58:42.437Z,94525.68
2018-01-25T22:01:11.214Z,94529.23
2018-01-25T22:03:39.606Z,94533.02
2018-01-25T22:06:07.999Z,94537.47
2018-01-25T22:08:36.378Z,94542.16
2018-01-25T22:11:05.010Z,94544.64
2018-01-25T22:13:33.487Z,94539.15
2018-01-25T22:16:01.894Z,94547.12
2018-01-25T22:18:30.290Z,94551.27
2018-01-25T22:20:58.679Z,94556.52
2018-01-25T22:23:27.124Z,94558.63
2018-01-25T22:25:55.510Z,94555.13
2018-01-25T22:28:23.929Z,94557.05
2018-01-25T22:30:52.322Z,94555.02
2018-01-25T22:33:20.786Z,94557.48
2018-01-25T22:35:49.198Z,94555.41
2018-01-25T22:38:17.584Z,94557.23
2018-01-25T22:40:46.073Z,94560.98
2018-01-25T22:43:14.498Z,94557.34
2018-01-25T22:45:42.906Z,94559.03
2018-01-25T22:48:11.313Z,94558.77
2018-01-25T22:50:39.708Z,94562.49
2018-01-25T22:53:08.465Z,94559.79
2018-01-25T22:55:36.858Z,94554.36
2018-01-25T22:58:05.236Z,94552.46
2018-01-25T23:00:40.427Z,94559.97
2018-01-25T23:03:09.126Z,94558.34
2018-01-25T23:05:37.613Z,94564.98
2018-01-25T23:08:05.986Z,94558.64
2018-01-25T23:10:34.436Z,94563.28
2018-01-25T23:13:02.826Z,94563.97
2018-01-25T23:15:31.510Z,94565.02
2018-01-25T23:17:59.885Z,94563.17
2018-01-25T23:20:28.264Z,94565.97
2018-01-25T23:22:56.646Z,94564.14
2018-01-25T23:25:25.010Z,94572.48
2018-01-25T23:27:53.490Z,94573.53
2018-01-25T23:30:21.882Z,94574.33
2018-01-25T23:32:50.332Z,94577.70
2018-01-25T23:35:18.715Z,94571.97
2018-01-25T23:37:47.107Z,94568.18
2018-01-25T23:40:15.548Z,94565.58
2018-01-25T23:42:43.922Z,94565.69
2018-01-25T23:45:12.977Z,94569.30
2018-01-25T23:47:41.357Z,94573.40
2018-01-25T23:50:09.743Z,94575.83
2018-01-25T23:52:38.150Z,94573.05
2018-01-25T23:55:06.578Z,94568.12
2018-01-25T23:57:35.075Z,94568.20
